Latest Coastal Weather Observations for Broome

IDW60701

Issued at 12:23 pm WST Friday 28 April 2017 (issued every 10 minutes, with the page automatically refreshed every 10 minutes)

About coastal observations | Map of coastal stations | Coastal observations for WA | Marine services | Other Formats
Station Details ID: 003003 Name: BROOME AIRPORT Lat: -17.95 Lon: 122.24 Height: 7.42 m
Data from the previous 72 hours. | See also: Recent months at Broome
Date/Time
WST
Temp
°C
Wind Pressure Rain since
9am
mm
Weather Cloud Vis
km
Sea
Height
m
Swell
Dir  Spd
kts
Gust
kts
hPa Trend Height
m
Period
s
Dir
28/12:00pm 31.9 E 12 16 1012.6 - 0.0 - - 10 - - - -
28/11:30am 31.2 E 15 20 1013.4 - 0.0 - - 10 - - - -
28/11:00am 31.0 E 14 20 1013.7 - 0.0 - - 10 - - - -
28/10:30am 30.3 E 15 21 1014.1 - 0.0 - - 10 - - - -
28/10:00am 29.8 E 13 19 1014.5 - 0.0 - - 10 - - - -
28/09:30am 28.7 E 14 18 1014.7 - 0.0 - - 10 - - - -
28/09:00am 27.6 E 11 15 1014.5 - 0.0 - - 10 - - - -
28/08:30am 26.2 E 11 16 1014.5 - 0.0 - - 10 - - - -
28/08:00am 24.7 E 9 13 1014.4 - 0.0 - - 10 - - - -
28/07:30am 23.4 E 8 11 1014.3 - 0.0 - - 10 - - - -
28/07:00am 22.2 E 5 7 1014.2 - 0.0 - - 10 - - - -
28/06:30am 22.5 ESE 7 9 1013.8 - 0.0 - - 10 - - - -
28/06:00am 22.5 ESE 7 9 1013.5 - 0.0 - - 10 - - - -
28/05:30am 23.1 SE 6 9 1013.4 - 0.0 - - 10 - - - -
28/05:00am 22.9 ESE 6 8 1013.1 - 0.0 - - 10 - - - -
28/04:30am 23.3 ESE 7 8 1013.0 - 0.0 - - 10 - - - -
28/04:00am 24.5 ESE 8 11 1012.9 - 0.0 - - 10 - - - -
28/03:30am 25.2 ESE 9 12 1012.6 - 0.0 - - 10 - - - -
28/03:00am 26.2 ESE 10 15 1012.4 - 0.0 - - 10 - - - -
28/02:30am 26.8 ESE 12 17 1012.6 - 0.0 - - 10 - - - -
28/02:00am 27.0 ESE 10 15 1012.7 - 0.0 - - 10 - - - -
28/01:30am 27.2 ESE 11 16 1012.7 - 0.0 - - 10 - - - -
28/01:00am 27.8 ESE 12 17 1012.8 - 0.0 - - 10 - - - -
28/12:30am 28.1 ESE 12 17 1013.0 - 0.0 - - 10 - - - -
28/12:00am 28.4 SE 12 17 1013.0 - 0.0 - - 10 - - - -
 
Date/Time
WST
Temp
°C
Wind Pressure Rain since
9am
mm
Weather Cloud Vis
km
Sea
Height
m
Swell
Dir  Spd
kts
Gust
kts
hPa Trend Height
m
Period
s
Dir
27/11:30pm 28.8 SE 11 15 1013.2 - 0.0 - - 10 - - - -
27/11:00pm 28.8 SE 11 14 1013.4 - 0.0 - - 10 - - - -
27/10:30pm 28.8 SE 10 14 1013.4 - 0.0 - - 10 - - - -
27/10:00pm 29.0 SE 9 15 1013.5 - 0.0 - - 10 - - - -
27/09:30pm 29.6 SE 8 11 1013.5 - 0.0 - - 10 - - - -
27/09:00pm 29.4 SE 5 7 1013.5 - 0.0 - - 10 - - - -
27/08:30pm 29.2 SSE 4 6 1013.5 - 0.0 - - 10 - - - -
27/08:00pm 28.3 ESE 4 5 1013.3 - 0.0 - - 10 - - - -
27/07:30pm 30.3 SE 5 7 1012.9 - 0.0 - - 10 - - - -
27/07:00pm 30.8 SSE 5 6 1012.5 - 0.0 - - 10 - - - -
27/06:30pm 31.2 S 4 6 1012.1 - 0.0 - - 10 - - - -
27/06:00pm 31.1 SSE 3 5 1011.5 - 0.0 - - 10 - - - -
27/05:30pm 32.0 S 5 7 1011.4 - 0.0 - - 10 - - - -
27/05:00pm 32.6 S 5 6 1011.0 - 0.0 - - 10 - - - -
27/04:30pm 33.1 SE 5 7 1010.7 - 0.0 - - 10 - - - -
27/04:00pm 33.6 SE 5 7 1010.4 - 0.0 - - 10 - - - -
27/03:30pm 33.6 SE 7 9 1010.4 - 0.0 - - 10 - - - -
27/03:00pm 34.0 SE 8 11 1010.2 - 0.0 - - 10 - - - -
27/02:30pm 33.9 SE 10 14 1010.3 - 0.0 - - 10 - - - -
27/02:00pm 33.6 E 10 15 1010.4 - 0.0 - - 10 - - - -
27/01:30pm 33.5 E 10 12 1010.9 - 0.0 - - 10 - - - -
27/01:00pm 32.7 SE 11 16 1011.3 - 0.0 - - 10 - - - -
27/12:30pm 32.4 SE 12 16 1011.6 - 0.0 - - 10 - - - -
27/12:00pm 31.9 ESE 12 16 1012.0 - 0.0 - - 10 - - - -
27/11:30am 31.4 ESE 11 16 1012.6 - 0.0 - - 10 - - - -
27/11:00am 31.0 ESE 13 18 1013.1 - 0.0 - - 10 - - - -
27/10:30am 30.5 E 14 21 1013.6 - 0.0 - - 10 - - - -
27/10:00am 30.1 E 14 21 1014.1 - 0.0 - - 10 - - - -
27/09:30am 29.6 ESE 15 21 1014.2 - 0.0 - - 10 - - - -
27/09:00am 29.2 ESE 12 18 1014.1 - 0.0 - - 10 - - - -
27/08:30am 27.4 ESE 13 17 1014.1 - 0.0 - - 10 - - - -
27/08:00am 27.0 ESE 13 16 1014.1 - 0.0 - - 10 - - - -
27/07:30am 26.5 ESE 12 17 1014.0 - 0.0 - - 10 - - - -
27/07:00am 25.7 SE 10 14 1013.6 - 0.0 - - 10 - - - -
27/06:30am 25.0 SE 10 13 1013.3 - 0.0 - - 10 - - - -
27/06:00am 25.2 ESE 10 13 1012.9 - 0.0 - - 10 - - - -
27/05:30am 26.0 ESE 11 14 1012.7 - 0.0 - - 10 - - - -
27/05:00am 26.5 SE 11 14 1012.5 - 0.0 - - 10 - - - -
27/04:30am 26.4 ESE 10 13 1012.2 - 0.0 - - 10 - - - -
27/04:00am 26.9 ESE 9 12 1012.1 - 0.0 - - 10 - - - -
27/03:30am 27.0 ESE 10 12 1011.9 - 0.0 - - 10 - - - -
27/03:00am 27.3 ESE 10 13 1011.8 - 0.0 - - 10 - - - -
27/02:30am 27.7 ESE 12 18 1012.0 - 0.0 - - 10 - - - -
27/02:00am 28.4 ESE 12 18 1012.3 - 0.0 - - 10 - - - -
27/01:30am 28.9 SE 15 22 1012.5 - 0.0 - - 10 - - - -
27/01:00am 28.9 SE 15 21 1012.8 - 0.0 - - 10 - - - -
27/12:30am 29.1 SSE 12 18 1013.0 - 0.0 - - 10 - - - -
27/12:00am 29.3 SE 11 17 1013.1 - 0.0 - - 10 - - - -
 
Date/Time
WST
Temp
°C
Wind Pressure Rain since
9am
mm
Weather Cloud Vis
km
Sea
Height
m
Swell
Dir  Spd
kts
Gust
kts
hPa Trend Height
m
Period
s
Dir
26/11:30pm 29.4 SSE 11 17 1013.2 - 0.0 - - 10 - - - -
26/11:00pm 29.9 SSE 12 17 1013.4 - 0.0 - - 10 - - - -
26/10:30pm 30.1 SE 12 16 1013.4 - 0.0 - - 10 - - - -
26/10:00pm 30.2 SE 9 13 1013.4 - 0.0 - - 10 - - - -
26/09:30pm 30.2 SE 8 11 1013.4 - 0.0 - Partly cloudy 10 - - - -
26/09:00pm 29.3 ESE 5 7 1013.1 - 0.0 - Mostly clear 10 - - - -
26/08:30pm 28.7 ESE 4 5 1013.2 - 0.0 - Partly cloudy 10 - - - -
26/08:00pm 29.6 SE 5 6 1012.9 - 0.0 - Partly cloudy 10 - - - -
26/07:30pm 29.9 SE 6 7 1012.5 - 0.0 - - 10 - - - -
26/07:00pm 30.4 SSE 5 7 1012.1 - 0.0 - - 10 - - - -
26/06:30pm 30.5 SE 6 8 1011.7 - 0.0 - - 10 - - - -
26/06:00pm 30.9 SE 7 9 1011.2 - 0.0 - - 10 - - - -
26/05:30pm 32.2 SE 7 11 1011.0 - 0.0 - - 10 - - - -
26/05:00pm 33.2 SSE 9 13 1010.6 - 0.0 - - 10 - - - -
26/04:30pm 33.7 SSE 10 13 1010.4 - 0.0 - - 10 - - - -
26/04:00pm 33.7 SSE 9 14 1010.1 - 0.0 - - 10 - - - -
26/03:30pm 33.6 SE 9 12 1009.9 - 0.0 - - 10 - - - -
26/03:00pm 33.8 ESE 8 10 1010.0 - 0.0 - - 10 - - - -
26/02:30pm 34.4 SE 9 12 1010.2 - 0.0 - - 10 - - - -
26/02:00pm 34.8 ESE 11 15 1010.3 - 0.0 - - 10 - - - -
26/01:30pm 34.2 SE 11 15 1010.4 - 0.0 - - 10 - - - -
26/01:00pm 34.4 ESE 12 17 1010.7 - 0.0 - - 10 - - - -
26/12:30pm 33.5 SE 11 14 1011.2 - 0.0 - - 10 - - - -
26/12:00pm 33.6 ESE 14 19 1011.4 - 0.0 - - 10 - - - -
26/11:30am 32.3 E 15 21 1011.9 - 0.0 - - 10 - - - -
26/11:00am 32.6 ESE 13 19 1012.3 - 0.0 - - 10 - - - -
26/10:30am 32.3 E 14 19 1012.8 - 0.0 - - 10 - - - -
26/10:00am 32.0 ESE 13 17 1013.2 - 0.0 - - 10 - - - -
26/09:30am 30.7 ESE 15 19 1013.5 - 0.0 - - 10 - - - -
26/09:00am 28.7 ESE 10 14 1013.2 - 0.0 - - 10 - - - -
26/08:30am 27.1 ESE 9 12 1013.2 - 0.0 - - 10 - - - -
26/08:00am 26.8 ESE 9 12 1013.3 - 0.0 - - 10 - - - -
26/07:30am 26.5 ESE 10 13 1013.2 - 0.0 - - 10 - - - -
26/07:00am 25.9 ESE 8 11 1013.0 - 0.0 - - 10 - - - -
26/06:30am 24.6 ESE 4 6 1012.5 - 0.0 - - 10 - - - -
26/06:00am 23.8 E 5 6 1012.1 - 0.0 - - 10 - - - -
26/05:30am 24.0 E 5 6 1012.3 - 0.0 - - 10 - - - -
26/05:00am 25.1 ESE 5 6 1012.2 - 0.0 - - 10 - - - -
26/04:30am 25.5 ESE 7 9 1012.3 - 0.0 - - 10 - - - -
26/04:00am 26.0 E 8 11 1012.1 - 0.0 - - 10 - - - -
26/03:30am 25.9 ESE 8 11 1012.1 - 0.0 - - 10 - - - -
26/03:00am 26.2 E 6 7 1012.1 - 0.0 - - 10 - - - -
26/02:30am 28.2 SE 11 16 1012.2 - 0.0 - - 10 - - - -
26/02:00am 29.0 S 8 11 1012.3 - 0.0 - - 10 - - - -
26/01:30am 28.2 SSW 8 11 1012.2 - 0.0 - - 10 - - - -
26/01:00am 28.3 SSW 7 8 1012.2 - 0.0 - - 10 - - - -
26/12:30am 28.4 SSW 6 9 1012.5 - 0.0 - - 10 - - - -
26/12:00am 28.5 SSW 7 9 1012.7 - 0.0 - - 10 - - - -
 
Date/Time
WST
Temp
°C
Wind Pressure Rain since
9am
mm
Weather Cloud Vis
km
Sea
Height
m
Swell
Dir  Spd
kts
Gust
kts
hPa Trend Height
m
Period
s
Dir
25/11:30pm 28.5 SSW 8 10 1012.9 - 0.0 - - 10 - - - -
25/11:00pm 28.6 SSW 7 10 1013.1 - 0.0 - - 10 - - - -
25/10:30pm 29.1 S 9 12 1013.2 - 0.0 - - 10 - - - -
25/10:00pm 29.0 SSW 7 9 1013.2 - 0.0 - - 10 - - - -
25/09:30pm 29.1 SW 7 10 1013.2 - 0.0 - - 10 - - - -
25/09:00pm 29.3 SW 7 9 1013.1 - 0.0 - - 10 - - - -
25/08:30pm 29.3 SSW 5 8 1013.1 - 0.0 - - 10 - - - -
25/08:00pm 28.6 WNW 2 5 1012.7 - 0.0 - - 10 - - - -
25/07:30pm 29.7 SW 7 12 1012.2 - 0.0 - - 10 - - - -
25/07:00pm 30.0 SW 9 12 1011.5 - 0.0 - - 10 - - - -
25/06:30pm 30.1 SW 10 13 1011.2 - 0.0 - - 10 - - - -
25/06:00pm 30.1 WSW 9 12 1010.9 - 0.0 - - 10 - - - -
25/05:30pm 30.8 WSW 7 11 1010.6 - 0.0 - - 10 - - - -
25/05:00pm 32.2 WSW 9 11 1010.5 - 0.0 - Partly cloudy 10 - - - -
25/04:30pm 33.1 WSW 8 11 1010.2 - 0.0 - - 10 - - - -
25/04:00pm 33.0 W 9 12 1010.0 - 0.0 - - 10 - - - -
25/03:30pm 33.0 W 9 11 1009.9 - 0.0 - - 10 - - - -
25/03:00pm 33.3 W 9 11 1009.7 - 0.0 - - 10 - - - -
25/02:30pm 34.7 SW 5 8 1009.8 - 0.0 - - 10 - - - -
25/02:00pm 35.7 SSE 4 7 1009.9 - 0.0 - - 10 - - - -
25/01:30pm 34.6 SSE 5 7 1010.2 - 0.0 - - 10 - - - -
25/01:00pm 34.4 SE 4 7 1010.7 - 0.0 - - 10 - - - -
25/12:30pm 33.6 S 4 6 1011.0 - 0.0 - - 10 - - - -

Other Formats:

Comma delimited format used in spreadsheet applications
http://www.bom.gov.au/fwo/IDW60701/IDW60701.94203.axf

JavaScript Object Notation format (JSON) in row-major order
http://www.bom.gov.au/fwo/IDW60701/IDW60701.94203.json